Time;durP1;ratioP1;P1;durP2;ratioP2;P2;SDS_P1;SDS_P2;PMS_P1;PMS_P2;Temp;Humidity;BMP_temperature;BMP_pressure;BME280_temperature;BME280_humidity;BME280_pressure;Samples;Min_cycle;Max_cycle;Signal;HPM_P1;HPM_P2
2021/09/21 00:00:46;;;;;;;3.53;2.38;;;;;;;12.75;64.98;102343.03;5002747;28;20566;-70
2021/09/21 00:03:12;;;;;;;4.13;2.97;;;;;;;12.77;65.33;102341.13;5019773;28;20037;-71
2021/09/21 00:05:37;;;;;;;5.60;2.78;;;;;;;12.79;65.28;102349.59;5022880;28;20034;-70
2021/09/21 00:08:04;;;;;;;7.22;2.60;;;;;;;12.77;65.22;102354.13;4982478;28;20095;-71
2021/09/21 00:10:31;;;;;;;4.68;2.72;;;;;;;12.78;65.27;102358.38;5013572;28;20033;-70
2021/09/21 00:12:56;;;;;;;6.55;2.75;;;;;;;12.79;65.47;102365.22;4988154;28;20047;-71
2021/09/21 00:15:22;;;;;;;7.03;2.72;;;;;;;12.80;65.85;102372.09;5004262;28;20390;-71
2021/09/21 00:17:50;;;;;;;5.28;2.75;;;;;;;12.76;65.75;102381.94;5000688;28;20052;-70
2021/09/21 00:20:17;;;;;;;5.35;3.03;;;;;;;12.73;65.09;102383.97;5015880;28;20029;-70
2021/09/21 00:22:44;;;;;;;5.93;2.80;;;;;;;12.68;65.00;102378.34;5006770;28;20526;-69
2021/09/21 00:25:12;;;;;;;5.18;3.17;;;;;;;12.64;64.80;102383.81;4994745;28;20127;-70
2021/09/21 00:27:38;;;;;;;6.00;3.22;;;;;;;12.65;64.60;102374.22;5027150;28;20033;-69
2021/09/21 00:30:08;;;;;;;5.00;3.10;;;;;;;12.65;63.90;102377.66;5013820;28;20144;-70
2021/09/21 00:32:33;;;;;;;12.57;3.17;;;;;;;12.66;64.23;102387.13;5004230;28;20045;-70
2021/09/21 00:34:59;;;;;;;7.20;3.05;;;;;;;12.63;63.84;102384.78;5024290;28;20037;-71
2021/09/21 00:37:25;;;;;;;5.90;2.88;;;;;;;12.59;64.27;102388.59;5008247;28;20037;-71
2021/09/21 00:39:51;;;;;;;5.50;2.70;;;;;;;12.57;64.60;102395.72;5027709;28;20022;-70
2021/09/21 00:42:26;;;;;;;5.72;3.30;;;;;;;12.56;64.50;102401.03;5019726;28;20401;-71
2021/09/21 00:44:56;;;;;;;6.72;3.10;;;;;;;12.53;64.32;102396.94;5026815;28;20061;-70
2021/09/21 00:47:22;;;;;;;5.78;2.80;;;;;;;12.52;63.92;102390.06;5005712;28;20731;-70
2021/09/21 00:49:48;;;;;;;5.93;3.47;;;;;;;12.53;64.22;102386.53;5027072;28;20036;-70
2021/09/21 00:52:13;;;;;;;9.60;3.15;;;;;;;12.63;63.94;102383.94;5021422;28;20033;-70
2021/09/21 00:54:39;;;;;;;8.30;3.03;;;;;;;12.57;64.09;102377.50;5023075;28;20122;-70
2021/09/21 00:57:05;;;;;;;9.85;3.92;;;;;;;12.59;64.06;102388.59;5020559;28;20024;-71
2021/09/21 00:59:30;;;;;;;4.57;2.92;;;;;;;12.56;64.21;102394.03;5028589;28;20041;-70
2021/09/21 01:01:56;;;;;;;7.72;3.00;;;;;;;12.53;64.63;102391.72;5005089;28;20029;-70
2021/09/21 01:04:22;;;;;;;7.40;3.20;;;;;;;12.52;64.25;102387.47;5005887;28;20068;-70
2021/09/21 01:33:25;;;;;;;4.97;3.00;;;;;;;12.36;65.57;102398.34;5013340;28;20036;-71
2021/09/21 01:35:50;;;;;;;15.23;3.92;;;;;;;12.32;65.69;102396.97;5006776;28;20148;-70
2021/09/21 01:38:16;;;;;;;13.50;4.70;;;;;;;12.43;64.95;102401.25;5005525;28;20032;-70
2021/09/21 01:40:41;;;;;;;4.47;3.17;;;;;;;12.38;65.00;102400.81;5011855;28;20392;-70
2021/09/21 01:43:07;;;;;;;8.20;3.60;;;;;;;12.44;64.73;102402.91;5023423;28;20056;-70
2021/09/21 01:45:35;;;;;;;7.00;3.70;;;;;;;12.35;65.46;102404.50;5020788;28;20540;-70
2021/09/21 01:48:01;;;;;;;5.10;3.28;;;;;;;12.30;65.77;102405.81;5020935;28;20070;-70
2021/09/21 01:50:32;;;;;;;5.32;3.15;;;;;;;12.36;66.07;102407.94;5025367;28;20029;-71
2021/09/21 01:53:05;;;;;;;5.97;3.70;;;;;;;12.33;66.11;102405.59;5006153;28;20038;-70
2021/09/21 02:00:57;;;;;;;5.97;3.17;;;;;;;12.23;66.48;102414.16;5011905;28;20083;-70
2021/09/21 02:03:23;;;;;;;6.18;3.22;;;;;;;12.21;67.01;102410.84;5009095;28;22013;-70
2021/09/21 02:05:49;;;;;;;8.68;3.92;;;;;;;12.20;66.92;102411.78;5009206;28;20037;-71
2021/09/21 02:08:14;;;;;;;9.85;3.47;;;;;;;12.22;66.75;102415.13;5011320;28;20045;-70
2021/09/21 02:10:40;;;;;;;9.32;3.45;;;;;;;12.19;67.33;102420.56;5023132;28;20037;-70
2021/09/21 02:13:05;;;;;;;5.40;3.20;;;;;;;12.21;67.63;102415.25;5011908;28;20347;-70
2021/09/21 02:15:31;;;;;;;7.60;3.15;;;;;;;12.23;67.73;102424.56;5010727;28;20040;-70
2021/09/21 02:17:59;;;;;;;5.57;3.25;;;;;;;12.19;67.37;102417.97;5004970;28;20068;-70
2021/09/21 02:20:26;;;;;;;10.25;3.83;;;;;;;12.18;67.16;102424.09;5022785;28;20116;-70
2021/09/21 02:22:51;;;;;;;8.95;3.70;;;;;;;12.15;67.30;102424.38;5006807;28;20123;-71
2021/09/21 02:25:17;;;;;;;6.22;3.20;;;;;;;12.11;67.47;102422.13;5014730;28;20128;-70
2021/09/21 02:27:42;;;;;;;7.50;3.70;;;;;;;12.14;67.71;102420.09;5009200;28;20037;-70
2021/09/21 02:30:08;;;;;;;10.43;4.22;;;;;;;12.13;67.72;102415.03;5007930;28;20491;-70
2021/09/21 02:32:34;;;;;;;7.53;3.58;;;;;;;12.09;67.77;102417.06;5024105;28;20035;-71
2021/09/21 02:35:00;;;;;;;5.82;3.00;;;;;;;12.11;67.75;102409.97;5028676;28;20316;-70
2021/09/21 02:37:25;;;;;;;6.05;3.60;;;;;;;12.09;68.03;102404.06;5007923;28;20029;-70
2021/09/21 02:39:50;;;;;;;9.32;3.60;;;;;;;12.12;67.35;102406.41;5027454;28;20037;-70
2021/09/21 02:42:16;;;;;;;8.20;4.20;;;;;;;12.04;67.96;102401.03;5015914;28;20064;-70
2021/09/21 02:44:41;;;;;;;8.40;3.80;;;;;;;12.04;67.98;102411.44;4990946;28;20068;-70
2021/09/21 02:47:07;;;;;;;5.22;3.58;;;;;;;12.01;68.11;102412.50;4987663;28;20495;-71
2021/09/21 02:49:33;;;;;;;6.70;3.53;;;;;;;12.05;67.94;102416.50;5028966;28;20467;-70
2021/09/21 02:51:59;;;;;;;6.40;3.83;;;;;;;12.09;68.16;102419.66;5027568;28;20103;-70
2021/09/21 02:54:24;;;;;;;7.88;3.63;;;;;;;12.02;68.03;102419.34;5006334;28;20491;-70
2021/09/21 02:56:50;;;;;;;10.48;3.72;;;;;;;11.97;68.13;102418.09;5008616;28;20379;-70
2021/09/21 02:59:16;;;;;;;8.32;4.30;;;;;;;12.00;68.63;102421.25;5009427;28;20049;-70
2021/09/21 03:01:41;;;;;;;14.35;4.13;;;;;;;11.98;68.66;102409.31;5027010;28;20053;-70
2021/09/21 03:04:15;;;;;;;7.53;3.50;;;;;;;11.97;68.58;102416.28;5027338;28;20045;-70
2021/09/21 03:06:46;;;;;;;6.35;3.47;;;;;;;11.97;68.88;102407.69;5009863;28;20120;-69
2021/09/21 03:12:31;;;;;;;5.97;3.58;;;;;;;11.98;69.05;102396.31;4990998;28;20742;-70
2021/09/21 03:17:41;;;;;;;6.28;3.70;;;;;;;11.96;68.68;102408.63;5024509;28;20496;-70
2021/09/21 03:20:07;;;;;;;7.18;3.30;;;;;;;11.94;68.36;102418.31;5028716;28;20053;-70
2021/09/21 03:22:33;;;;;;;9.23;4.00;;;;;;;11.92;68.85;102422.81;5018167;28;20400;-70
2021/09/21 03:24:58;;;;;;;10.43;3.92;;;;;;;11.91;69.06;102424.59;5019865;28;20033;-71
2021/09/21 03:27:27;;;;;;;8.27;4.20;;;;;;;11.86;68.79;102430.13;4989902;28;20534;-71
2021/09/21 03:29:52;;;;;;;7.63;4.00;;;;;;;11.84;68.99;102428.63;5032417;28;20049;-70
2021/09/21 03:32:18;;;;;;;9.48;5.00;;;;;;;11.84;69.11;102436.41;5025595;28;20538;-70
2021/09/21 03:34:43;;;;;;;6.95;4.30;;;;;;;11.83;69.01;102443.41;5026410;28;20553;-70
2021/09/21 03:37:10;;;;;;;8.77;4.18;;;;;;;11.83;69.38;102446.00;5011537;28;20037;-70
2021/09/21 03:39:36;;;;;;;7.07;3.90;;;;;;;11.85;69.60;102445.88;5014978;23;20022;-68
2021/09/21 03:42:02;;;;;;;6.30;4.05;;;;;;;11.83;69.83;102453.78;5001782;28;20525;-68
2021/09/21 03:44:28;;;;;;;7.15;3.75;;;;;;;11.86;69.99;102450.91;5008479;28;20037;-68
2021/09/21 03:46:55;;;;;;;6.97;4.28;;;;;;;11.87;70.01;102460.38;5024701;28;20045;-68
2021/09/21 03:49:22;;;;;;;7.53;4.35;;;;;;;11.79;70.20;102454.16;4992831;28;21371;-67
2021/09/21 03:51:49;;;;;;;6.38;3.70;;;;;;;11.78;70.27;102465.50;5009455;28;20121;-68
2021/09/21 03:54:14;;;;;;;6.97;3.72;;;;;;;11.77;70.32;102475.09;5010914;28;20529;-68
2021/09/21 03:56:40;;;;;;;10.32;4.43;;;;;;;11.77;70.23;102482.03;5005201;28;20034;-68
2021/09/21 03:59:07;;;;;;;9.60;4.53;;;;;;;11.80;70.40;102484.41;5029964;28;20120;-68
2021/09/21 04:01:33;;;;;;;8.05;4.00;;;;;;;11.79;70.33;102482.72;5023251;28;20041;-68
2021/09/21 04:03:59;;;;;;;10.00;4.50;;;;;;;11.80;70.44;102490.41;4995992;28;20453;-68
2021/09/21 04:06:26;;;;;;;9.57;4.47;;;;;;;11.79;70.56;102486.19;5025724;28;20064;-67
2021/09/21 04:08:53;;;;;;;11.27;4.50;;;;;;;11.78;70.47;102494.09;5025796;28;20140;-68
2021/09/21 04:11:19;;;;;;;11.00;4.45;;;;;;;11.77;70.26;102501.06;5009037;28;20388;-68
2021/09/21 04:13:46;;;;;;;11.68;4.68;;;;;;;11.78;70.53;102504.50;5011267;28;20047;-68
2021/09/21 04:16:12;;;;;;;8.35;3.88;;;;;;;11.75;70.49;102500.34;5028016;28;20025;-68
2021/09/21 04:18:37;;;;;;;9.52;4.70;;;;;;;11.77;71.08;102514.06;5006939;28;20033;-68
2021/09/21 04:21:03;;;;;;;9.15;4.78;;;;;;;11.75;71.09;102509.91;5010724;28;20289;-67
2021/09/21 04:23:28;;;;;;;7.90;4.18;;;;;;;11.76;71.07;102509.81;5008970;28;20060;-68
2021/09/21 04:25:54;;;;;;;7.85;4.10;;;;;;;11.77;71.35;102513.22;5026577;28;20034;-68
2021/09/21 04:28:21;;;;;;;8.30;4.20;;;;;;;11.78;71.01;102514.88;5025203;28;21394;-68
2021/09/21 04:30:51;;;;;;;7.63;4.18;;;;;;;11.76;71.18;102514.19;5025512;28;20037;-68
2021/09/21 04:33:18;;;;;;;7.28;4.38;;;;;;;11.74;71.12;102527.28;5025714;28;22894;-68
2021/09/21 04:35:44;;;;;;;8.10;4.13;;;;;;;11.72;70.96;102521.41;5007840;28;20380;-68
2021/09/21 04:38:10;;;;;;;9.25;4.68;;;;;;;11.72;71.42;102531.78;5026940;28;20096;-68
2021/09/21 04:40:38;;;;;;;7.85;4.00;;;;;;;11.71;71.53;102531.91;5006740;28;20076;-68
2021/09/21 04:43:04;;;;;;;13.55;4.03;;;;;;;11.73;71.36;102532.59;4989323;28;20049;-68
2021/09/21 04:45:31;;;;;;;7.40;4.22;;;;;;;11.69;71.45;102537.22;5025716;28;20406;-67
2021/09/21 04:47:57;;;;;;;8.43;4.63;;;;;;;11.67;71.71;102542.53;5029588;28;20179;-68
2021/09/21 04:50:22;;;;;;;8.20;4.78;;;;;;;11.66;72.04;102546.09;5006088;28;20041;-68
2021/09/21 04:52:47;;;;;;;11.35;5.28;;;;;;;11.68;71.79;102551.16;5005120;28;20033;-68
2021/09/21 04:55:13;;;;;;;7.82;4.38;;;;;;;11.67;71.80;102558.13;5025888;28;20033;-68
2021/09/21 04:57:39;;;;;;;12.02;4.68;;;;;;;11.66;71.89;102545.28;5003353;28;20373;-68
2021/09/21 05:00:06;;;;;;;10.05;4.68;;;;;;;11.65;72.01;102554.00;5025694;28;20080;-68
2021/09/21 05:02:32;;;;;;;10.25;4.53;;;;;;;11.64;71.89;102560.13;5007406;28;20265;-67
2021/09/21 05:04:57;;;;;;;7.90;4.35;;;;;;;11.61;72.36;102557.78;5019097;28;20033;-68
2021/09/21 05:07:23;;;;;;;13.25;4.55;;;;;;;11.57;72.80;102565.00;5024289;28;20067;-67
2021/09/21 05:09:48;;;;;;;10.65;4.82;;;;;;;11.55;73.05;102566.06;5008269;28;20179;-68
2021/09/21 05:12:14;;;;;;;11.77;4.75;;;;;;;11.52;72.97;102566.28;4990830;28;20033;-68
2021/09/21 05:14:39;;;;;;;12.73;5.30;;;;;;;11.49;72.98;102575.16;4984918;28;20021;-68
2021/09/21 05:17:05;;;;;;;11.48;5.88;;;;;;;11.42;72.97;102571.38;5004786;28;20176;-68
2021/09/21 05:19:30;;;;;;;13.73;5.50;;;;;;;11.36;73.44;102571.84;5021415;28;20033;-68
2021/09/21 05:21:56;;;;;;;9.90;4.80;;;;;;;11.33;73.57;102575.50;4992824;28;20042;-68
2021/09/21 05:24:21;;;;;;;11.52;5.03;;;;;;;11.28;73.60;102575.03;4995288;28;20037;-68
2021/09/21 05:26:47;;;;;;;11.55;5.60;;;;;;;11.26;73.37;102576.91;5022443;28;20043;-68
2021/09/21 05:29:12;;;;;;;8.05;4.40;;;;;;;11.23;73.51;102577.16;5024388;28;20061;-67
2021/09/21 05:31:38;;;;;;;9.18;4.75;;;;;;;11.22;73.59;102583.28;5007869;28;20482;-67
2021/09/21 05:34:03;;;;;;;8.75;4.50;;;;;;;11.19;73.86;102586.97;5025945;28;20124;-67
2021/09/21 05:36:29;;;;;;;8.75;4.50;;;;;;;11.18;73.89;102582.69;5025896;28;20554;-68
2021/09/21 05:38:55;;;;;;;10.82;5.47;;;;;;;11.18;73.60;102581.88;5003319;28;20044;-68
2021/09/21 05:41:21;;;;;;;8.55;4.80;;;;;;;11.17;73.46;102582.81;5025023;28;20038;-68
2021/09/21 05:43:46;;;;;;;8.57;4.50;;;;;;;11.17;73.61;102585.41;5026249;28;20025;-67
2021/09/21 05:46:12;;;;;;;11.90;5.25;;;;;;;11.16;73.73;102568.19;5026363;28;20483;-68
2021/09/21 05:48:38;;;;;;;9.70;4.70;;;;;;;11.14;73.55;102575.25;5021360;28;20411;-68
2021/09/21 05:51:03;;;;;;;9.52;4.50;;;;;;;11.12;73.72;102580.56;5010734;28;20498;-67
2021/09/21 05:53:29;;;;;;;10.70;5.30;;;;;;;11.09;74.14;102602.41;5023344;28;20108;-68
2021/09/21 05:55:54;;;;;;;12.73;4.57;;;;;;;11.03;74.61;102609.81;5005049;28;20044;-67
2021/09/21 05:58:20;;;;;;;8.25;4.28;;;;;;;10.98;75.17;102602.38;5004949;28;20041;-68
2021/09/21 06:00:45;;;;;;;7.18;4.03;;;;;;;11.01;74.88;102601.31;5000266;28;20549;-67
2021/09/21 06:03:11;;;;;;;10.10;4.57;;;;;;;11.03;74.79;102618.41;5000904;28;20033;-68
2021/09/21 06:05:37;;;;;;;8.82;4.78;;;;;;;11.05;74.83;102626.91;5002335;28;20060;-67
2021/09/21 06:08:02;;;;;;;7.30;4.68;;;;;;;11.06;75.11;102638.16;5001404;28;20025;-67
2021/09/21 06:10:28;;;;;;;11.63;4.40;;;;;;;11.07;75.31;102627.63;5000865;28;20514;-67
2021/09/21 06:12:54;;;;;;;9.15;4.72;;;;;;;11.11;75.25;102623.03;4990633;28;20431;-68
2021/09/21 06:15:20;;;;;;;9.25;4.72;;;;;;;11.13;75.44;102631.53;4999717;28;20278;-67
2021/09/21 06:17:48;;;;;;;8.90;4.88;;;;;;;11.18;75.36;102629.44;5007861;28;20036;-68
2021/09/21 06:20:14;;;;;;;10.77;5.03;;;;;;;11.20;75.66;102626.72;5004384;28;20112;-67
2021/09/21 06:22:44;;;;;;;10.75;5.18;;;;;;;11.26;75.71;102627.09;5003121;28;20045;-67
2021/09/21 06:25:11;;;;;;;18.45;6.22;;;;;;;11.34;75.49;102628.25;5024946;28;20041;-67
2021/09/21 06:27:37;;;;;;;9.68;5.00;;;;;;;11.43;75.56;102633.63;5021591;28;20029;-68
2021/09/21 06:30:08;;;;;;;9.88;4.97;;;;;;;11.59;75.69;102633.25;5021539;28;20068;-68
2021/09/21 06:32:34;;;;;;;7.95;5.35;;;;;;;11.85;75.22;102633.84;5008480;28;20108;-67
2021/09/21 06:35:01;;;;;;;12.60;6.75;;;;;;;12.22;72.38;102637.94;5005184;28;20053;-68
2021/09/21 06:37:26;;;;;;;12.50;6.32;;;;;;;12.87;70.48;102630.94;4997308;28;20034;-68
2021/09/21 06:39:52;;;;;;;12.43;6.50;;;;;;;13.49;67.67;102637.09;5026030;28;20032;-68
2021/09/21 06:42:17;;;;;;;12.90;6.72;;;;;;;13.97;65.06;102630.38;5032227;28;20048;-68
2021/09/21 06:44:43;;;;;;;16.58;6.43;;;;;;;14.07;64.52;102635.59;5025077;28;20107;-68
2021/09/21 06:47:09;;;;;;;17.38;6.40;;;;;;;14.26;63.26;102630.44;5024160;28;20028;-68
2021/09/21 06:49:34;;;;;;;12.18;5.82;;;;;;;14.73;62.40;102640.22;5015626;28;20572;-68
2021/09/21 06:52:03;;;;;;;12.18;6.10;;;;;;;14.93;60.16;102639.22;5010508;28;20365;-67
2021/09/21 06:54:28;;;;;;;14.52;5.97;;;;;;;15.07;58.95;102642.34;5012550;28;20037;-69
2021/09/21 06:56:54;;;;;;;14.82;6.47;;;;;;;15.68;58.26;102639.28;5008912;28;20030;-68
2021/09/21 06:59:19;;;;;;;12.73;6.82;;;;;;;15.98;56.18;102652.25;5025151;28;20025;-68
2021/09/21 07:01:44;;;;;;;14.13;6.55;;;;;;;16.35;55.91;102658.19;5022336;28;20116;-68
2021/09/21 07:04:10;;;;;;;31.27;14.00;;;;;;;16.87;55.39;102656.66;4992954;28;20040;-68
2021/09/21 07:06:36;;;;;;;15.77;6.53;;;;;;;16.99;53.28;102662.47;5008979;28;20535;-68
2021/09/21 07:09:02;;;;;;;14.75;6.22;;;;;;;17.08;53.22;102664.19;5011823;28;20033;-68
2021/09/21 07:11:28;;;;;;;15.27;6.00;;;;;;;17.09;53.14;102661.41;4993803;28;20397;-68
2021/09/21 07:13:53;;;;;;;11.73;6.50;;;;;;;17.25;52.54;102657.25;5025156;28;20041;-68
2021/09/21 07:16:19;;;;;;;16.60;6.18;;;;;;;17.31;53.54;102661.88;5028916;28;20172;-68
2021/09/21 07:18:45;;;;;;;13.50;6.03;;;;;;;17.62;53.20;102662.19;5009969;28;20264;-68
2021/09/21 07:21:13;;;;;;;12.20;5.88;;;;;;;18.23;50.98;102662.91;5012476;28;20072;-68
2021/09/21 07:23:39;;;;;;;10.80;6.07;;;;;;;18.28;51.53;102672.91;5009592;28;20026;-69
2021/09/21 07:26:08;;;;;;;9.38;6.00;;;;;;;18.52;49.78;102669.50;5012028;28;20113;-69
2021/09/21 07:28:35;;;;;;;9.05;6.15;;;;;;;18.97;47.16;102672.63;5010191;28;20037;-69
2021/09/21 07:31:00;;;;;;;11.10;5.53;;;;;;;19.15;48.30;102682.94;5006208;28;20533;-69
2021/09/21 07:33:26;;;;;;;14.70;5.93;;;;;;;19.13;47.47;102682.28;5028376;28;20033;-68
2021/09/21 07:35:52;;;;;;;8.13;4.90;;;;;;;19.54;45.37;102682.19;5026856;28;20065;-68
2021/09/21 07:38:19;;;;;;;12.25;4.85;;;;;;;19.60;45.94;102676.22;5010403;28;20036;-68
2021/09/21 07:40:45;;;;;;;11.07;5.45;;;;;;;19.63;44.39;102681.16;5007925;28;20103;-69
2021/09/21 07:43:11;;;;;;;8.55;5.40;;;;;;;19.99;44.89;102681.50;5010444;28;20033;-69
2021/09/21 07:45:38;;;;;;;10.35;4.65;;;;;;;20.05;42.97;102684.44;5020977;28;20038;-69
2021/09/21 07:48:04;;;;;;;10.38;5.00;;;;;;;20.11;42.55;102679.28;5009472;28;20026;-69
2021/09/21 07:50:31;;;;;;;11.77;4.97;;;;;;;20.18;43.00;102682.88;5008623;28;20399;-68
2021/09/21 07:52:57;;;;;;;10.70;5.45;;;;;;;20.20;43.31;102685.34;5011054;28;20037;-68
2021/09/21 07:55:25;;;;;;;10.73;4.60;;;;;;;20.08;42.79;102687.56;5010805;28;20399;-69
2021/09/21 07:57:51;;;;;;;9.02;4.68;;;;;;;20.18;41.71;102685.50;5027183;28;20494;-68
2021/09/21 08:00:20;;;;;;;10.27;4.30;;;;;;;20.33;39.01;102690.03;5025453;28;20025;-69
2021/09/21 08:02:45;;;;;;;12.10;4.47;;;;;;;20.05;41.24;102684.44;5027687;28;20021;-68
2021/09/21 08:05:14;;;;;;;9.80;4.68;;;;;;;19.82;41.25;102682.59;5010497;28;20545;-67
2021/09/21 08:07:41;;;;;;;6.10;3.72;;;;;;;19.73;40.84;102683.63;5010423;28;20021;-69
2021/09/21 08:10:08;;;;;;;9.70;3.97;;;;;;;20.08;40.66;102687.56;5027738;28;20071;-69
2021/09/21 08:12:37;;;;;;;9.95;3.70;;;;;;;20.26;38.61;102689.91;5020660;28;20043;-68
2021/09/21 08:15:03;;;;;;;7.82;4.30;;;;;;;20.53;38.54;102687.72;5010230;28;20475;-69
2021/09/21 08:17:28;;;;;;;6.28;3.05;;;;;;;20.69;38.47;102692.91;5003602;28;20017;-69
2021/09/21 08:19:55;;;;;;;4.68;2.80;;;;;;;20.85;36.59;102697.22;5026297;28;20026;-69
2021/09/21 08:22:21;;;;;;;5.55;2.92;;;;;;;20.71;36.80;102698.00;5026575;28;20033;-68
2021/09/21 08:24:48;;;;;;;6.18;3.33;;;;;;;20.93;37.64;102704.25;5011036;28;20514;-69
2021/09/21 08:27:14;;;;;;;6.93;3.13;;;;;;;21.13;36.68;102704.53;5013639;28;20495;-69
2021/09/21 08:29:40;;;;;;;6.53;3.35;;;;;;;21.55;36.67;102708.41;5027001;28;20538;-69
2021/09/21 08:32:07;;;;;;;5.13;2.97;;;;;;;21.50;36.73;102703.66;5025217;28;20041;-69
2021/09/21 08:34:33;;;;;;;6.00;3.28;;;;;;;21.52;37.24;102712.22;5028836;28;20044;-69
2021/09/21 08:37:02;;;;;;;12.40;3.80;;;;;;;21.41;36.76;102714.47;5025738;28;20025;-69
2021/09/21 08:39:31;;;;;;;6.25;3.05;;;;;;;21.43;35.78;102718.56;5010010;28;20029;-68
2021/09/21 08:41:57;;;;;;;4.80;2.75;;;;;;;21.47;36.30;102719.03;5025114;28;20033;-69
2021/09/21 08:44:22;;;;;;;26.40;15.73;;;;;;;21.70;35.66;102721.56;5023773;28;20408;-68
2021/09/21 08:46:48;;;;;;;7.40;3.92;;;;;;;21.74;35.52;102717.59;5009136;28;20044;-68
2021/09/21 08:49:15;;;;;;;4.97;2.88;;;;;;;21.49;35.37;102723.16;5009840;28;20490;-68
2021/09/21 08:51:41;;;;;;;5.82;2.50;;;;;;;21.25;35.49;102733.91;5012732;28;20037;-68
2021/09/21 08:54:07;;;;;;;6.68;2.80;;;;;;;21.21;36.11;102733.47;5026556;28;20271;-69
2021/09/21 08:56:33;;;;;;;3.78;2.75;;;;;;;21.31;37.07;102738.50;5027823;28;20407;-68
2021/09/21 08:59:04;;;;;;;5.65;2.85;;;;;;;21.20;36.23;102742.38;5025151;28;20385;-69
2021/09/21 09:01:43;;;;;;;8.75;3.30;;;;;;;21.17;36.58;102733.03;5028501;28;20041;-68
2021/09/21 09:04:10;;;;;;;8.13;2.80;;;;;;;20.98;38.57;102739.63;5010987;28;20416;-68
2021/09/21 09:06:52;;;;;;;4.43;2.63;;;;;;;20.92;38.68;102734.22;5010967;28;20116;-68
2021/09/21 09:09:21;;;;;;;5.85;3.10;;;;;;;20.86;38.13;102725.22;5017494;28;20129;-68
2021/09/21 09:11:55;;;;;;;5.13;2.30;;;;;;;20.88;37.28;102733.75;5028361;28;20088;-68
2021/09/21 09:14:30;;;;;;;3.85;2.40;;;;;;;20.89;38.83;102726.66;5007406;28;20111;-69
2021/09/21 09:17:01;;;;;;;7.80;2.92;;;;;;;20.44;39.15;102734.41;5005973;28;20025;-69
2021/09/21 09:19:53;;;;;;;8.10;2.90;;;;;;;20.48;37.61;102732.25;5027852;28;20068;-69
2021/09/21 09:22:24;;;;;;;4.85;2.38;;;;;;;20.24;36.67;102734.03;5028268;28;20116;-69
2021/09/21 09:24:56;;;;;;;7.35;2.35;;;;;;;19.82;36.45;102736.03;5027854;28;20035;-69
2021/09/21 09:27:39;;;;;;;4.60;2.40;;;;;;;19.72;37.41;102743.31;5036452;28;20024;-69
2021/09/21 09:30:09;;;;;;;5.70;2.65;;;;;;;19.52;37.39;102740.22;5010066;28;20507;-69
2021/09/21 09:32:48;;;;;;;7.97;2.85;;;;;;;19.53;37.68;102736.59;5010234;28;20033;-69
2021/09/21 09:35:32;;;;;;;4.13;1.85;;;;;;;19.62;38.50;102740.84;5028336;28;20119;-69
2021/09/21 09:38:01;;;;;;;9.52;3.05;;;;;;;19.59;37.04;102737.72;5003765;28;20391;-68
2021/09/21 09:40:28;;;;;;;4.05;2.60;;;;;;;19.26;37.38;102737.81;5014561;23;20111;-71
2021/09/21 09:42:54;;;;;;;3.70;2.50;;;;;;;19.34;38.46;102734.34;5016030;28;20436;-71
2021/09/21 09:45:36;;;;;;;3.92;3.05;;;;;;;19.45;40.15;102736.63;5029536;28;20038;-70
2021/09/21 09:48:04;;;;;;;3.40;2.20;;;;;;;19.55;38.86;102733.78;5028253;28;20183;-70
2021/09/21 09:50:32;;;;;;;4.18;2.22;;;;;;;19.74;39.67;102736.09;5027609;28;20471;-71
2021/09/21 09:53:01;;;;;;;8.88;3.80;;;;;;;19.48;40.73;102735.44;5005862;28;20351;-71
2021/09/21 09:59:18;;;;;;;5.40;3.20;;;;;;;19.40;41.17;102736.28;5020370;28;20076;-70
2021/09/21 10:01:45;;;;;;;6.43;3.85;;;;;;;19.22;42.09;102736.50;5027083;28;20033;-71
2021/09/21 10:04:12;;;;;;;10.85;3.97;;;;;;;19.40;40.74;102742.41;5009123;28;20041;-70
2021/09/21 10:06:39;;;;;;;7.68;3.15;;;;;;;19.40;40.71;102747.66;5002919;28;20045;-71
2021/09/21 10:09:04;;;;;;;6.55;3.72;;;;;;;19.50;40.60;102749.28;5009271;28;20060;-72
2021/09/21 10:11:34;;;;;;;7.53;4.07;;;;;;;19.35;40.49;102746.50;5001748;28;20044;-71
2021/09/21 10:14:04;;;;;;;9.18;4.07;;;;;;;19.24;40.47;102747.69;5021678;28;20041;-71
2021/09/21 10:16:31;;;;;;;8.50;3.22;;;;;;;19.32;41.11;102752.09;5024559;28;20052;-70
2021/09/21 10:19:03;;;;;;;8.02;3.72;;;;;;;19.39;39.08;102755.72;4993536;28;20780;-71
2021/09/21 10:21:38;;;;;;;8.13;3.92;;;;;;;19.20;40.81;102749.00;5024377;28;20365;-70
2021/09/21 10:24:07;;;;;;;6.80;3.40;;;;;;;19.47;39.63;102745.16;5020508;28;20120;-71
2021/09/21 10:26:41;;;;;;;8.77;3.35;;;;;;;19.59;42.40;102740.34;4996290;28;20026;-70
2021/09/21 10:29:07;;;;;;;6.00;3.60;;;;;;;19.60;41.26;102742.81;5010337;28;20039;-71
2021/09/21 10:31:34;;;;;;;7.30;3.42;;;;;;;19.49;41.45;102748.44;5022454;28;20037;-70
2021/09/21 10:34:15;;;;;;;6.18;3.50;;;;;;;19.67;40.65;102744.78;5030868;28;20037;-70
2021/09/21 10:36:59;;;;;;;9.77;3.20;;;;;;;19.45;41.17;102745.31;5030734;28;20411;-71
2021/09/21 10:39:24;;;;;;;6.07;2.92;;;;;;;19.65;40.38;102748.41;5012358;28;20029;-70
2021/09/21 10:41:56;;;;;;;11.77;3.30;;;;;;;19.82;38.48;102741.31;5013246;28;20032;-71
2021/09/21 10:44:22;;;;;;;7.53;2.83;;;;;;;19.80;36.79;102747.75;5031218;28;20087;-71
2021/09/21 10:46:57;;;;;;;7.80;2.92;;;;;;;19.63;39.54;102737.22;5011944;28;20021;-70
2021/09/21 10:49:27;;;;;;;6.15;3.25;;;;;;;19.52;42.12;102749.94;5014119;28;20045;-70
2021/09/21 10:52:03;;;;;;;3.95;2.65;;;;;;;19.50;40.23;102742.19;5014452;28;20079;-71
2021/09/21 10:54:30;;;;;;;4.22;2.63;;;;;;;19.47;40.89;102744.34;5030891;28;20029;-70
2021/09/21 10:57:11;;;;;;;10.82;2.75;;;;;;;19.48;40.19;102745.97;5028676;28;20499;-70
2021/09/21 11:00:01;;;;;;;5.10;2.35;;;;;;;19.67;40.63;102744.78;5026109;28;20037;-72
2021/09/21 11:02:35;;;;;;;11.68;4.85;;;;;;;19.56;41.90;102736.25;4991762;28;20553;-70
2021/09/21 11:05:00;;;;;;;13.88;4.20;;;;;;;19.47;40.22;102739.91;5029643;28;20124;-70
2021/09/21 11:07:31;;;;;;;5.85;3.05;;;;;;;19.65;39.72;102727.34;5027161;28;20131;-69
2021/09/21 11:10:00;;;;;;;7.10;3.28;;;;;;;19.72;40.36;102732.81;5015570;28;20033;-71
2021/09/21 11:12:25;;;;;;;7.93;2.95;;;;;;;19.76;40.22;102730.63;5014704;28;20041;-72
2021/09/21 11:14:54;;;;;;;8.27;3.20;;;;;;;19.80;39.42;102726.69;5006960;28;20415;-71
2021/09/21 11:17:22;;;;;;;8.25;3.42;;;;;;;19.82;38.92;102729.97;5008732;28;20030;-71
2021/09/21 11:19:51;;;;;;;7.57;2.80;;;;;;;19.84;38.97;102725.34;5004830;28;20052;-71
2021/09/21 11:22:22;;;;;;;4.28;2.55;;;;;;;20.05;38.08;102727.38;5008510;28;20442;-70
2021/09/21 11:24:48;;;;;;;6.18;2.35;;;;;;;19.98;39.09;102729.06;5015519;28;20029;-70
2021/09/21 11:27:13;;;;;;;3.90;2.03;;;;;;;20.05;38.70;102732.66;5007849;28;20029;-71
2021/09/21 11:29:40;;;;;;;6.70;2.05;;;;;;;20.02;37.16;102736.47;5024679;28;20042;-70
2021/09/21 11:32:21;;;;;;;6.25;2.22;;;;;;;20.08;36.72;102734.09;5005916;28;20049;-70
2021/09/21 11:34:58;;;;;;;4.82;2.20;;;;;;;20.10;36.79;102740.88;5007781;28;20084;-70
2021/09/21 11:37:26;;;;;;;8.10;2.20;;;;;;;19.83;37.76;102737.69;5027736;28;20052;-71
2021/09/21 11:39:51;;;;;;;5.60;2.30;;;;;;;19.81;37.47;102738.84;5005051;28;20033;-71
2021/09/21 11:42:31;;;;;;;4.10;2.10;;;;;;;19.83;36.43;102737.69;5016956;28;20037;-70
2021/09/21 11:44:59;;;;;;;4.07;2.00;;;;;;;19.87;36.13;102738.16;5010945;28;20052;-70
2021/09/21 11:47:35;;;;;;;4.10;1.92;;;;;;;19.94;37.12;102738.28;5003851;28;20084;-71
2021/09/21 11:50:01;;;;;;;3.42;2.25;;;;;;;19.90;36.48;102745.72;5028188;23;20049;-76
2021/09/21 11:52:27;;;;;;;6.75;2.25;;;;;;;19.86;36.31;102731.25;5012145;28;20045;-84
2021/09/21 11:54:52;;;;;;;4.68;2.10;;;;;;;19.61;36.83;102733.94;5010355;28;20088;-81
2021/09/21 11:57:21;;;;;;;14.55;6.65;;;;;;;19.55;36.17;102736.41;5016818;28;20045;-80
2021/09/21 11:59:47;;;;;;;3.42;2.40;;;;;;;19.50;36.38;102739.56;4999440;28;20034;-81
2021/09/21 12:02:17;;;;;;;5.20;2.15;;;;;;;19.47;37.36;102737.28;4970088;28;20634;-83
2021/09/21 12:04:43;;;;;;;4.60;2.22;;;;;;;19.41;36.98;102732.69;4980520;28;20041;-83